Time,TemperatureF,DewpointF,PressureIn,WindDirection,WindDirectionDegrees,WindSpeedMPH,WindSpeedGustMPH,Humidity,HourlyPrecipIn,Conditions,Clouds,dailyrainin,SoftwareType,DateUTC
2013-05-29 00:03:00,74.2,61.0,29.94,SSE,159,0.0,-999.0,64,-99.99,,,0.00,weatherlink.com 1.10,2013-05-29 05:03:00,
2013-05-29 00:18:00,73.6,61.0,29.94,South,177,1.0,-999.0,65,-99.99,,,0.00,weatherlink.com 1.10,2013-05-29 05:18:00,
2013-05-29 00:33:00,73.0,61.0,29.94,SSE,161,0.0,-999.0,66,-99.99,,,0.00,weatherlink.com 1.10,2013-05-29 05:33:00,
2013-05-29 00:48:00,72.8,61.0,29.94,South,189,3.0,-999.0,66,-99.99,,,0.00,weatherlink.com 1.10,2013-05-29 05:48:00,
2013-05-29 01:03:00,72.4,61.0,29.93,SSE,150,0.0,-999.0,67,-99.99,,,0.00,weatherlink.com 1.10,2013-05-29 06:03:00,
2013-05-29 01:18:00,72.0,61.0,29.93,SSE,148,3.0,-999.0,68,-99.99,,,0.00,weatherlink.com 1.10,2013-05-29 06:18:00,
2013-05-29 01:33:00,71.6,60.0,29.93,SSE,153,0.0,-999.0,68,-99.99,,,0.00,weatherlink.com 1.10,2013-05-29 06:33:00,
2013-05-29 01:48:00,71.3,61.0,29.93,SSE,159,0.0,-999.0,69,-99.99,,,0.00,weatherlink.com 1.10,2013-05-29 06:48:00,
2013-05-29 02:03:00,71.3,60.0,29.93,SSE,159,3.0,-999.0,68,-99.99,,,0.00,weatherlink.com 1.10,2013-05-29 07:03:00,
2013-05-29 02:18:00,71.2,60.0,29.94,South,180,0.0,-999.0,68,-99.99,,,0.00,weatherlink.com 1.10,2013-05-29 07:18:00,
2013-05-29 02:33:00,70.8,60.0,29.93,SSE,163,0.0,-999.0,69,-99.99,,,0.00,weatherlink.com 1.10,2013-05-29 07:33:00,
2013-05-29 02:48:00,70.5,60.0,29.93,SSE,150,5.0,-999.0,69,-99.99,,,0.00,weatherlink.com 1.10,2013-05-29 07:48:00,
2013-05-29 03:03:00,69.6,60.0,29.93,SSE,149,5.0,-999.0,71,-99.99,,,0.00,weatherlink.com 1.10,2013-05-29 08:03:00,
2013-05-29 03:18:00,69.0,60.0,29.93,SE,145,3.0,-999.0,72,-99.99,,,0.00,weatherlink.com 1.10,2013-05-29 08:18:00,
2013-05-29 03:33:00,68.9,60.0,29.94,SSE,155,2.0,-999.0,73,-99.99,,,0.00,weatherlink.com 1.10,2013-05-29 08:33:00,
2013-05-29 03:48:00,68.9,60.0,29.94,SSE,166,0.0,-999.0,73,-99.99,,,0.00,weatherlink.com 1.10,2013-05-29 08:48:00,
2013-05-29 04:03:00,69.1,60.0,29.94,South,175,0.0,-999.0,73,-99.99,,,0.00,weatherlink.com 1.10,2013-05-29 09:03:00,
2013-05-29 04:18:00,69.2,60.0,29.94,South,169,2.0,-999.0,72,-99.99,,,0.00,weatherlink.com 1.10,2013-05-29 09:18:00,
2013-05-29 04:33:00,69.2,60.0,29.95,SSE,161,3.0,-999.0,72,-99.99,,,0.00,weatherlink.com 1.10,2013-05-29 09:33:00,
2013-05-29 04:48:00,68.7,60.0,29.95,SSE,161,0.0,-999.0,73,-99.99,,,0.00,weatherlink.com 1.10,2013-05-29 09:48:00,
2013-05-29 05:03:00,68.1,60.0,29.95,SSE,160,2.0,-999.0,74,-99.99,,,0.00,weatherlink.com 1.10,2013-05-29 10:03:00,
2013-05-29 05:18:00,67.3,59.0,29.96,SSE,160,0.0,-999.0,75,-99.99,,,0.00,weatherlink.com 1.10,2013-05-29 10:18:00,
2013-05-29 05:33:00,66.8,59.0,29.97,SSE,160,0.0,-999.0,76,-99.99,,,0.00,weatherlink.com 1.10,2013-05-29 10:33:00,
2013-05-29 05:48:00,66.4,59.0,29.98,SSE,160,0.0,-999.0,77,-99.99,,,0.00,weatherlink.com 1.10,2013-05-29 10:48:00,
2013-05-29 06:03:00,66.0,59.0,29.99,SSE,160,0.0,-999.0,78,-99.99,,,0.00,weatherlink.com 1.10,2013-05-29 11:03:00,
2013-05-29 06:18:00,65.8,59.0,30.00,SE,125,3.0,-999.0,79,-99.99,,,0.00,weatherlink.com 1.10,2013-05-29 11:18:00,
2013-05-29 06:33:00,66.6,60.0,30.00,SE,124,4.0,-999.0,78,-99.99,,,0.00,weatherlink.com 1.10,2013-05-29 11:33:00,
2013-05-29 06:48:00,66.8,60.0,30.00,SE,133,4.0,-999.0,79,-99.99,,,0.00,weatherlink.com 1.10,2013-05-29 11:48:00,
2013-05-29 07:03:00,68.1,61.0,30.01,SSE,155,0.0,-999.0,77,-99.99,,,0.00,weatherlink.com 1.10,2013-05-29 12:03:00,
2013-05-29 07:18:00,68.7,61.0,30.01,SSE,157,0.0,-999.0,77,-99.99,,,0.00,weatherlink.com 1.10,2013-05-29 12:18:00,
2013-05-29 07:33:00,69.0,62.0,30.01,SE,137,5.0,-999.0,78,-99.99,,,0.00,weatherlink.com 1.10,2013-05-29 12:33:00,
2013-05-29 07:48:00,70.2,63.0,30.02,SSE,155,2.0,-999.0,77,-99.99,,,0.00,weatherlink.com 1.10,2013-05-29 12:48:00,
2013-05-29 08:03:00,70.9,63.0,30.02,SSE,149,5.0,-999.0,76,-99.99,,,0.00,weatherlink.com 1.10,2013-05-29 13:03:00,
2013-05-29 08:18:00,72.6,64.0,30.02,SSE,161,4.0,-999.0,74,-99.99,,,0.00,weatherlink.com 1.10,2013-05-29 13:18:00,
2013-05-29 08:33:00,74.2,64.0,30.02,SSE,167,7.0,-999.0,71,-99.99,,,0.00,weatherlink.com 1.10,2013-05-29 13:33:00,
2013-05-29 08:48:00,75.3,65.0,30.02,SSW,198,6.0,-999.0,70,-99.99,,,0.00,weatherlink.com 1.10,2013-05-29 13:48:00,
2013-05-29 09:03:00,76.2,65.0,30.02,SSW,198,9.0,-999.0,69,-99.99,,,0.00,weatherlink.com 1.10,2013-05-29 14:03:00,
2013-05-29 09:18:00,76.7,64.0,30.01,SSE,162,7.0,-999.0,66,-99.99,,,0.00,weatherlink.com 1.10,2013-05-29 14:18:00,
2013-05-29 09:33:00,77.6,66.0,30.01,South,182,7.0,-999.0,67,-99.99,,,0.00,weatherlink.com 1.10,2013-05-29 14:33:00,
2013-05-29 09:48:00,77.9,66.0,30.00,SSE,155,7.0,-999.0,66,-99.99,,,0.00,weatherlink.com 1.10,2013-05-29 14:48:00,
2013-05-29 10:03:00,78.7,66.0,30.00,SE,146,9.0,-999.0,65,-99.99,,,0.00,weatherlink.com 1.10,2013-05-29 15:03:00,
2013-05-29 10:18:00,79.0,66.0,30.00,SSE,168,5.0,-999.0,65,-99.99,,,0.00,weatherlink.com 1.10,2013-05-29 15:18:00,
2013-05-29 10:33:00,80.0,66.0,30.00,SSE,147,9.0,-999.0,62,-99.99,,,0.00,weatherlink.com 1.10,2013-05-29 15:33:00,
2013-05-29 10:48:00,80.4,66.0,30.00,South,185,6.0,-999.0,61,-99.99,,,0.00,weatherlink.com 1.10,2013-05-29 15:48:00,
2013-05-29 11:03:00,80.8,65.0,30.00,SSW,192,2.0,-999.0,58,-99.99,,,0.00,weatherlink.com 1.10,2013-05-29 16:03:00,
2013-05-29 11:18:00,81.7,65.0,30.00,South,188,0.0,-999.0,58,-99.99,,,0.00,weatherlink.com 1.10,2013-05-29 16:18:00,
2013-05-29 11:33:00,82.1,65.0,30.00,South,184,9.0,-999.0,56,-99.99,,,0.00,weatherlink.com 1.10,2013-05-29 16:33:00,
2013-05-29 11:48:00,82.3,64.0,29.99,SSE,161,9.0,-999.0,55,-99.99,,,0.00,weatherlink.com 1.10,2013-05-29 16:48:00,
2013-05-29 12:03:00,82.3,65.0,29.99,SSE,165,8.0,-999.0,56,-99.99,,,0.00,weatherlink.com 1.10,2013-05-29 17:03:00,
2013-05-29 12:18:00,83.2,66.0,29.99,South,189,7.0,-999.0,57,-99.99,,,0.00,weatherlink.com 1.10,2013-05-29 17:18:00,
2013-05-29 12:33:00,83.3,66.0,29.98,South,170,12.0,-999.0,56,-99.99,,,0.00,weatherlink.com 1.10,2013-05-29 17:33:00,
2013-05-29 12:48:00,83.6,67.0,29.98,SSW,213,10.0,-999.0,57,-99.99,,,0.00,weatherlink.com 1.10,2013-05-29 17:48:00,
2013-05-29 13:03:00,84.1,67.0,29.97,SSW,200,11.0,-999.0,56,-99.99,,,0.00,weatherlink.com 1.10,2013-05-29 18:03:00,
2013-05-29 13:18:00,84.4,67.0,29.97,SSW,192,6.0,-999.0,57,-99.99,,,0.00,weatherlink.com 1.10,2013-05-29 18:18:00,
2013-05-29 13:33:00,84.4,68.0,29.96,South,173,9.0,-999.0,59,-99.99,,,0.00,weatherlink.com 1.10,2013-05-29 18:33:00,
2013-05-29 13:48:00,84.7,68.0,29.96,SSW,192,5.0,-999.0,58,-99.99,,,0.00,weatherlink.com 1.10,2013-05-29 18:48:00,
2013-05-29 14:03:00,84.0,69.0,29.95,SSE,149,11.0,-999.0,60,-99.99,,,0.00,weatherlink.com 1.10,2013-05-29 19:03:00,
2013-05-29 14:18:00,84.9,68.0,29.95,South,179,11.0,-999.0,58,-99.99,,,0.00,weatherlink.com 1.10,2013-05-29 19:18:00,
2013-05-29 14:33:00,85.3,68.0,29.95,South,176,10.0,-999.0,57,-99.99,,,0.00,weatherlink.com 1.10,2013-05-29 19:33:00,
2013-05-29 14:48:00,85.5,69.0,29.94,South,189,6.0,-999.0,59,-99.99,,,0.00,weatherlink.com 1.10,2013-05-29 19:48:00,
2013-05-29 15:03:00,85.3,69.0,29.94,South,178,7.0,-999.0,58,-99.99,,,0.00,weatherlink.com 1.10,2013-05-29 20:03:00,
2013-05-29 15:18:00,85.4,70.0,29.93,SSE,153,12.0,-999.0,60,-99.99,,,0.00,weatherlink.com 1.10,2013-05-29 20:18:00,
2013-05-29 15:33:00,85.5,69.0,29.94,SE,144,16.0,-999.0,59,-99.99,,,0.00,weatherlink.com 1.10,2013-05-29 20:33:00,
2013-05-29 15:48:00,84.8,68.0,29.93,SSE,149,10.0,-999.0,58,-99.99,,,0.00,weatherlink.com 1.10,2013-05-29 20:48:00,
2013-05-29 16:03:00,84.6,68.0,29.93,SSE,148,5.0,-999.0,57,-99.99,,,0.00,weatherlink.com 1.10,2013-05-29 21:03:00,
2013-05-29 16:18:00,85.7,68.0,29.92,SE,145,4.0,-999.0,56,-99.99,,,0.00,weatherlink.com 1.10,2013-05-29 21:18:00,
2013-05-29 16:33:00,85.6,66.0,29.93,SSE,161,11.0,-999.0,52,-99.99,,,0.00,weatherlink.com 1.10,2013-05-29 21:33:00,
2013-05-29 16:48:00,86.1,66.0,29.92,South,180,0.0,-999.0,51,-99.99,,,0.00,weatherlink.com 1.10,2013-05-29 21:48:00,
2013-05-29 17:03:00,86.2,66.0,29.92,SSE,160,5.0,-999.0,52,-99.99,,,0.00,weatherlink.com 1.10,2013-05-29 22:03:00,
2013-05-29 17:18:00,85.8,67.0,29.92,South,173,7.0,-999.0,53,-99.99,,,0.00,weatherlink.com 1.10,2013-05-29 22:18:00,
2013-05-29 17:33:00,85.7,68.0,29.91,SSE,151,10.0,-999.0,55,-99.99,,,0.00,weatherlink.com 1.10,2013-05-29 22:33:00,
2013-05-29 17:48:00,84.7,68.0,29.91,SSW,205,7.0,-999.0,57,-99.99,,,0.00,weatherlink.com 1.10,2013-05-29 22:48:00,
2013-05-29 18:03:00,84.8,68.0,29.91,SSE,147,7.0,-999.0,57,-99.99,,,0.00,weatherlink.com 1.10,2013-05-29 23:03:00,
2013-05-29 18:18:00,84.9,68.0,29.90,SSE,149,4.0,-999.0,58,-99.99,,,0.00,weatherlink.com 1.10,2013-05-29 23:18:00,
2013-05-29 18:33:00,84.9,69.0,29.91,South,184,9.0,-999.0,59,-99.99,,,0.00,weatherlink.com 1.10,2013-05-29 23:33:00,
2013-05-29 18:48:00,84.7,69.0,29.90,SSE,158,12.0,-999.0,60,-99.99,,,0.00,weatherlink.com 1.10,2013-05-29 23:48:00,
2013-05-29 19:03:00,83.8,69.0,29.90,SE,144,4.0,-999.0,62,-99.99,,,0.00,weatherlink.com 1.10,2013-05-30 00:03:00,
2013-05-29 19:18:00,83.3,70.0,29.89,SE,141,4.0,-999.0,64,-99.99,,,0.00,weatherlink.com 1.10,2013-05-30 00:18:00,
2013-05-29 19:33:00,82.8,69.0,29.89,SSE,152,6.0,-999.0,64,-99.99,,,0.00,weatherlink.com 1.10,2013-05-30 00:33:00,
2013-05-29 19:48:00,82.1,69.0,29.89,SSE,157,7.0,-999.0,65,-99.99,,,0.00,weatherlink.com 1.10,2013-05-30 00:48:00,
2013-05-29 20:03:00,81.1,70.0,29.89,SSE,163,1.0,-999.0,68,-99.99,,,0.00,weatherlink.com 1.10,2013-05-30 01:03:00,
2013-05-29 20:18:00,80.2,70.0,29.89,SE,140,4.0,-999.0,70,-99.99,,,0.00,weatherlink.com 1.10,2013-05-30 01:18:00,
2013-05-29 20:33:00,79.5,70.0,29.89,SE,142,4.0,-999.0,72,-99.99,,,0.00,weatherlink.com 1.10,2013-05-30 01:33:00,
2013-05-29 20:48:00,79.0,70.0,29.88,SE,130,4.0,-999.0,73,-99.99,,,0.00,weatherlink.com 1.10,2013-05-30 01:48:00,
2013-05-29 21:03:00,78.1,70.0,29.88,SE,137,4.0,-999.0,75,-99.99,,,0.00,weatherlink.com 1.10,2013-05-30 02:03:00,
2013-05-29 21:18:00,77.6,70.0,29.89,SE,138,0.0,-999.0,76,-99.99,,,0.00,weatherlink.com 1.10,2013-05-30 02:18:00,
2013-05-29 21:33:00,77.3,70.0,29.89,SE,132,4.0,-999.0,77,-99.99,,,0.00,weatherlink.com 1.10,2013-05-30 02:33:00,
2013-05-29 21:48:00,76.9,70.0,29.89,SE,130,0.0,-999.0,78,-99.99,,,0.00,weatherlink.com 1.10,2013-05-30 02:48:00,
2013-05-29 22:03:00,76.6,70.0,29.89,SE,130,2.0,-999.0,79,-99.99,,,0.00,weatherlink.com 1.10,2013-05-30 03:03:00,
2013-05-29 22:18:00,77.0,70.0,29.88,SE,133,6.0,-999.0,78,-99.99,,,0.00,weatherlink.com 1.10,2013-05-30 03:18:00,
2013-05-29 22:33:00,77.2,70.0,29.89,SSE,148,6.0,-999.0,77,-99.99,,,0.00,weatherlink.com 1.10,2013-05-30 03:33:00,
2013-05-29 22:48:00,77.6,70.0,29.89,SSE,148,9.0,-999.0,76,-99.99,,,0.00,weatherlink.com 1.10,2013-05-30 03:48:00,
2013-05-29 23:03:00,77.8,70.0,29.89,SSE,149,4.0,-999.0,76,-99.99,,,0.00,weatherlink.com 1.10,2013-05-30 04:03:00,
2013-05-29 23:18:00,77.8,70.0,29.90,SSE,153,6.0,-999.0,76,-99.99,,,0.00,weatherlink.com 1.10,2013-05-30 04:18:00,
2013-05-29 23:33:00,77.7,70.0,29.91,South,173,3.0,-999.0,76,-99.99,,,0.00,weatherlink.com 1.10,2013-05-30 04:33:00,
2013-05-29 23:48:00,78.2,70.0,29.92,SSE,156,0.0,-999.0,75,-99.99,,,0.00,weatherlink.com 1.10,2013-05-30 04:48:00,